MOL Paramount — 3ECH9 — position and weather

sailwx.info

Track history (hours):
 
Tides and Currents Weather Stations Pressure Air Temp Water Temp Dewpoint Dewpoint Depression Visibility Wind Speed Wind Dir Waves Ship Positions

MOL Paramount

Last reported at 2018-Apr-19 23:48 UTC. Time now 2018-Apr-20 18:39 UTC.
Position N 01°18' E 103°19'.

Length 293 m; draft 11.8 m.

Type: Cargo ship. MMSI: 371519000.

Date/timePositionNaut miles runAvg speedWind from/ knotsBaromVisibWave heightAir tempDewpointWater temp
2018-Apr-19 23:48N 01°18' E 103°19'921.0
2018-Apr-19 23:22N 01°13' E 103°27'718.5
2018-Apr-19 22:58N 01°12' E 103°34'511.7
2018-Apr-19 22:30N 01°13' E 103°40'5 9.1
2018-Apr-19 21:59N 01°15' E 103°44'3 6.7
2018-Apr-19 21:29N 01°16' E 103°47'0 0.5
2018-Apr-19 20:55N 01°16' E 103°47'0 0.0
2018-Apr-19 20:28N 01°16' E 103°47'0 0.1
2018-Apr-19 19:58N 01°16' E 103°47'0 0.0
2018-Apr-19 19:28N 01°16' E 103°47'0 0.1
2018-Apr-19 18:58N 01°16' E 103°47'0 0.0
2018-Apr-19 18:25N 01°16' E 103°47'0 0.0
2018-Apr-19 17:55N 01°16' E 103°47'0 0.0
2018-Apr-19 17:28N 01°16' E 103°47'0 0.0
2018-Apr-19 16:55N 01°16' E 103°47'0 0.0
2018-Apr-19 16:28N 01°16' E 103°47'0 0.0
2018-Apr-19 15:58N 01°16' E 103°47'0 0.1
2018-Apr-19 15:28N 01°16' E 103°47'0 0.0
2018-Apr-19 14:58N 01°16' E 103°47'0 0.0
2018-Apr-19 14:28N 01°16' E 103°47'0 0.1
2018-Apr-19 13:58N 01°16' E 103°47'0 0.0
2018-Apr-19 13:28N 01°16' E 103°47'0 0.1
2018-Apr-19 12:58N 01°16' E 103°47'0 0.1
2018-Apr-19 12:28N 01°16' E 103°47'0 0.1
2018-Apr-19 11:55N 01°16' E 103°47'0 0.1
2018-Apr-19 11:28N 01°16' E 103°47'0 0.0
2018-Apr-19 10:55N 01°16' E 103°47'0 0.1
2018-Apr-19 10:28N 01°16' E 103°47'0 0.0
2018-Apr-19 09:58N 01°16' E 103°47'0 0.1
2018-Apr-19 09:28N 01°16' E 103°47'0 0.1
2018-Apr-19 08:58N 01°16' E 103°47'0 0.0
2018-Apr-19 08:28N 01°16' E 103°47'0 0.1
2018-Apr-19 08:00N 01°16' E 103°47'1 2.1
2018-Apr-19 07:30N 01°15' E 103°47'2 3.1
2018-Apr-19 06:59N 01°14' E 103°47'3 5.3
2018-Apr-19 06:30N 01°12' E 103°49'3 6.7
2018-Apr-19 06:00N 01°13' E 103°53'2 3.7
2018-Apr-19 05:30N 01°14' E 103°54'2 2.7
2018-Apr-19 04:55N 01°14' E 103°56'2 4.7
2018-Apr-19 04:30N 01°15' E 103°58'3 5.3
2018-Apr-19 03:59N 01°16' E 104°00'2 4.7
2018-Apr-19 03:29N 01°16' E 104°03'2 4.0
2018-Apr-19 03:00N 01°17' E 104°04'  
Track history (hours):
 
Tides and Currents Weather Stations Pressure Air Temp Water Temp Dewpoint Dewpoint Depression Visibility Wind Speed Wind Dir Waves Ship Positions

MOL Paramount

Last reported at 2018-Apr-19 23:48 UTC. Time now 2018-Apr-20 18:39 UTC.
Position N 01°18' E 103°19'.

Length 293 m; draft 11.8 m.

Type: Cargo ship. MMSI: 371519000.

Date/timePositionNaut miles runAvg speedWind from/ knotsBaromVisibWave heightAir tempDewpointWater temp
2018-Apr-19 23:48N 01°18' E 103°19'921.0
2018-Apr-19 23:22N 01°13' E 103°27'718.5
2018-Apr-19 22:58N 01°12' E 103°34'511.7
2018-Apr-19 22:30N 01°13' E 103°40'5 9.1
2018-Apr-19 21:59N 01°15' E 103°44'3 6.7
2018-Apr-19 21:29N 01°16' E 103°47'0 0.5
2018-Apr-19 20:55N 01°16' E 103°47'0 0.0
2018-Apr-19 20:28N 01°16' E 103°47'0 0.1
2018-Apr-19 19:58N 01°16' E 103°47'0 0.0
2018-Apr-19 19:28N 01°16' E 103°47'0 0.1
2018-Apr-19 18:58N 01°16' E 103°47'0 0.0
2018-Apr-19 18:25N 01°16' E 103°47'0 0.0
2018-Apr-19 17:55N 01°16' E 103°47'0 0.0
2018-Apr-19 17:28N 01°16' E 103°47'0 0.0
2018-Apr-19 16:55N 01°16' E 103°47'0 0.0
2018-Apr-19 16:28N 01°16' E 103°47'0 0.0
2018-Apr-19 15:58N 01°16' E 103°47'0 0.1
2018-Apr-19 15:28N 01°16' E 103°47'0 0.0
2018-Apr-19 14:58N 01°16' E 103°47'0 0.0
2018-Apr-19 14:28N 01°16' E 103°47'0 0.1
2018-Apr-19 13:58N 01°16' E 103°47'0 0.0
2018-Apr-19 13:28N 01°16' E 103°47'0 0.1
2018-Apr-19 12:58N 01°16' E 103°47'0 0.1
2018-Apr-19 12:28N 01°16' E 103°47'0 0.1
2018-Apr-19 11:55N 01°16' E 103°47'0 0.1
2018-Apr-19 11:28N 01°16' E 103°47'0 0.0
2018-Apr-19 10:55N 01°16' E 103°47'0 0.1
2018-Apr-19 10:28N 01°16' E 103°47'0 0.0
2018-Apr-19 09:58N 01°16' E 103°47'0 0.1
2018-Apr-19 09:28N 01°16' E 103°47'0 0.1
2018-Apr-19 08:58N 01°16' E 103°47'0 0.0
2018-Apr-19 08:28N 01°16' E 103°47'0 0.1
2018-Apr-19 08:00N 01°16' E 103°47'1 2.1
2018-Apr-19 07:30N 01°15' E 103°47'2 3.1
2018-Apr-19 06:59N 01°14' E 103°47'3 5.3
2018-Apr-19 06:30N 01°12' E 103°49'3 6.7
2018-Apr-19 06:00N 01°13' E 103°53'2 3.7
2018-Apr-19 05:30N 01°14' E 103°54'2 2.7
2018-Apr-19 04:55N 01°14' E 103°56'2 4.7
2018-Apr-19 04:30N 01°15' E 103°58'3 5.3
2018-Apr-19 03:59N 01°16' E 104°00'2 4.7
2018-Apr-19 03:29N 01°16' E 104°03'2 4.0
2018-Apr-19 03:00N 01°17' E 104°04'  

Dump ship's entire track history